createdAt,value
2017-12-12T00:01:54.424Z,73.90
2017-12-12T00:04:23.501Z,73.50
2017-12-12T00:06:52.597Z,73.20
2017-12-12T00:09:20.879Z,73.20
2017-12-12T00:11:49.184Z,71.20
2017-12-12T00:14:18.253Z,70.00
2017-12-12T00:16:47.178Z,69.80
2017-12-12T00:19:15.489Z,68.90
2017-12-12T00:21:44.447Z,68.10
2017-12-12T00:24:13.537Z,68.40
2017-12-12T00:26:41.851Z,68.30
2017-12-12T00:29:10.168Z,69.10
2017-12-12T00:31:39.232Z,68.50
2017-12-12T00:34:07.598Z,68.50
2017-12-12T00:36:36.657Z,66.20
2017-12-12T00:39:04.982Z,66.30
2017-12-12T00:41:33.294Z,66.70
2017-12-12T00:44:02.349Z,67.50
2017-12-12T00:46:30.681Z,66.60
2017-12-12T00:48:58.980Z,67.10
2017-12-12T00:51:27.979Z,67.00
2017-12-12T00:53:56.302Z,66.40
2017-12-12T00:56:24.586Z,66.00
2017-12-12T00:58:52.867Z,66.20
2017-12-12T01:01:21.178Z,65.20
2017-12-12T01:03:49.527Z,65.40
2017-12-12T01:06:17.886Z,66.30
2017-12-12T01:08:46.190Z,65.60
2017-12-12T01:11:14.541Z,66.70
2017-12-12T01:13:42.840Z,67.60
2017-12-12T01:16:11.905Z,66.60
2017-12-12T01:18:40.989Z,66.00
2017-12-12T01:21:09.289Z,66.00
2017-12-12T01:23:37.607Z,66.00
2017-12-12T01:26:05.915Z,66.30
2017-12-12T01:28:34.247Z,66.30
2017-12-12T01:31:02.580Z,67.20
2017-12-12T01:33:30.921Z,66.80
2017-12-12T01:36:00.023Z,66.20
2017-12-12T01:38:28.372Z,66.30
2017-12-12T01:40:56.700Z,66.80
2017-12-12T01:43:26.304Z,66.90
2017-12-12T01:45:54.592Z,67.80
2017-12-12T01:48:22.913Z,68.00
2017-12-12T01:50:51.198Z,68.30
2017-12-12T01:53:19.550Z,69.80
2017-12-12T01:55:47.863Z,71.70
2017-12-12T01:58:16.146Z,73.20
2017-12-12T02:00:44.489Z,74.50
2017-12-12T02:03:12.785Z,76.80
2017-12-12T02:05:41.843Z,78.60
2017-12-12T02:08:10.221Z,78.80
2017-12-12T02:10:38.528Z,77.10
2017-12-12T02:13:06.833Z,76.20
2017-12-12T02:15:35.130Z,73.80
2017-12-12T02:18:04.237Z,69.60
2017-12-12T02:20:32.600Z,69.80
2017-12-12T02:23:00.933Z,66.90
2017-12-12T02:25:30.009Z,66.10
2017-12-12T02:27:59.221Z,66.50
2017-12-12T02:30:27.713Z,66.50
2017-12-12T02:32:56.763Z,66.80
2017-12-12T02:35:25.862Z,68.80
2017-12-12T02:37:54.564Z,68.90
2017-12-12T02:40:22.944Z,69.30
2017-12-12T02:42:51.289Z,69.90
2017-12-12T02:45:19.578Z,70.30
2017-12-12T02:47:48.635Z,70.30
2017-12-12T02:50:16.996Z,70.20
2017-12-12T02:52:45.346Z,71.00
2017-12-12T02:55:13.633Z,71.70
2017-12-12T02:57:41.950Z,70.80
2017-12-12T03:00:10.286Z,72.50
2017-12-12T03:02:39.358Z,77.30
2017-12-12T03:05:07.669Z,77.30
2017-12-12T03:07:35.966Z,82.40
2017-12-12T03:10:04.305Z,82.30
2017-12-12T03:12:32.617Z,84.50
2017-12-12T03:15:00.917Z,86.30
2017-12-12T03:17:29.972Z,86.60
2017-12-12T03:19:58.325Z,86.60
2017-12-12T03:22:26.636Z,87.00
2017-12-12T03:24:54.942Z,86.50
2017-12-12T03:27:23.262Z,87.40
2017-12-12T03:29:51.577Z,87.40
2017-12-12T03:32:19.865Z,89.70
2017-12-12T03:34:48.241Z,90.50
2017-12-12T03:37:16.536Z,90.40
2017-12-12T03:39:44.854Z,93.00
2017-12-12T03:42:13.287Z,94.70
2017-12-12T03:44:41.804Z,95.80
2017-12-12T03:47:10.099Z,95.30
2017-12-12T03:49:38.403Z,94.90
2017-12-12T03:52:06.739Z,95.20
2017-12-12T03:54:35.043Z,92.60
2017-12-12T03:57:03.356Z,91.40
2017-12-12T03:59:31.678Z,90.00
2017-12-12T04:01:59.993Z,88.60
2017-12-12T04:04:29.070Z,87.50
2017-12-12T04:06:57.445Z,87.50
2017-12-12T04:09:25.768Z,86.00
2017-12-12T04:11:54.840Z,83.40
2017-12-12T04:14:23.919Z,84.10
2017-12-12T04:16:53.022Z,85.60
2017-12-12T04:19:21.315Z,85.60
2017-12-12T04:21:49.630Z,84.90
2017-12-12T04:24:18.712Z,83.50
2017-12-12T04:26:47.017Z,83.50
2017-12-12T04:29:15.336Z,82.30
2017-12-12T04:31:43.713Z,83.80
2017-12-12T04:34:12.016Z,82.50
2017-12-12T04:36:40.301Z,80.80
2017-12-12T04:39:08.633Z,79.10
2017-12-12T04:41:36.945Z,80.80
2017-12-12T04:44:05.264Z,78.80
2017-12-12T04:46:33.584Z,79.80
2017-12-12T04:49:01.889Z,79.60
2017-12-12T04:51:30.190Z,78.00
2017-12-12T04:53:58.509Z,78.40
2017-12-12T04:56:27.587Z,79.10
2017-12-12T04:58:55.952Z,79.20
2017-12-12T05:01:24.268Z,79.80
2017-12-12T05:03:52.694Z,78.70
2017-12-12T05:06:21.029Z,78.60
2017-12-12T05:08:49.355Z,78.40
2017-12-12T05:11:18.435Z,79.20
2017-12-12T05:13:46.716Z,79.10
2017-12-12T05:16:15.029Z,79.20
2017-12-12T05:18:43.321Z,79.50
2017-12-12T05:21:11.749Z,80.20
2017-12-12T05:23:40.406Z,79.30
2017-12-12T05:26:08.740Z,79.10
2017-12-12T05:28:37.033Z,79.90
2017-12-12T05:31:05.358Z,80.60
2017-12-12T05:33:33.733Z,79.70
2017-12-12T05:36:02.050Z,79.80
2017-12-12T05:38:31.122Z,79.60
2017-12-12T05:40:59.469Z,79.60
2017-12-12T05:43:27.755Z,79.30
2017-12-12T05:45:56.836Z,79.20
2017-12-12T05:48:25.991Z,79.20
2017-12-12T05:50:55.090Z,78.90
2017-12-12T05:53:23.464Z,78.90
2017-12-12T05:55:51.764Z,78.90
2017-12-12T05:58:20.813Z,77.90
2017-12-12T06:00:49.162Z,78.00
2017-12-12T06:03:18.239Z,76.60
2017-12-12T06:05:46.547Z,76.60
2017-12-12T06:08:14.864Z,75.70
2017-12-12T06:10:43.137Z,75.10
2017-12-12T06:13:17.371Z,75.30
2017-12-12T06:15:45.820Z,74.20
2017-12-12T06:18:14.171Z,72.80
2017-12-12T06:20:42.510Z,73.40
2017-12-12T06:23:10.807Z,72.30
2017-12-12T06:25:39.870Z,73.70
2017-12-12T06:28:08.241Z,73.60
2017-12-12T06:30:36.521Z,72.40
2017-12-12T06:33:04.913Z,73.20
2017-12-12T06:35:33.197Z,72.70
2017-12-12T06:38:01.485Z,72.00
2017-12-12T06:40:29.889Z,72.20
2017-12-12T06:42:58.185Z,73.20
2017-12-12T06:45:27.233Z,74.10
2017-12-12T06:47:55.542Z,74.00
2017-12-12T06:50:23.875Z,73.50
2017-12-12T06:52:52.165Z,73.90
2017-12-12T06:55:20.477Z,72.90
2017-12-12T06:57:48.807Z,73.40
2017-12-12T07:00:17.097Z,72.90
2017-12-12T07:02:45.413Z,72.10
2017-12-12T07:05:14.461Z,72.30
2017-12-12T07:07:42.794Z,72.30
2017-12-12T07:10:11.119Z,71.90
2017-12-12T07:12:39.426Z,70.80
2017-12-12T07:15:08.539Z,70.20
2017-12-12T07:17:36.856Z,70.20
2017-12-12T07:20:05.177Z,69.20
2017-12-12T07:22:33.487Z,70.10
2017-12-12T07:25:02.537Z,69.30
2017-12-12T07:27:31.619Z,69.80
2017-12-12T07:30:00.701Z,68.90
2017-12-12T07:32:29.006Z,68.90
2017-12-12T07:34:57.293Z,68.90
2017-12-12T07:37:25.627Z,68.30
2017-12-12T07:39:53.915Z,67.90
2017-12-12T07:42:22.241Z,68.70
2017-12-12T07:44:50.519Z,68.20
2017-12-12T07:47:19.613Z,68.30
2017-12-12T07:49:48.706Z,68.00
2017-12-12T07:52:17.032Z,67.90
2017-12-12T07:54:45.327Z,68.20
2017-12-12T07:57:17.207Z,68.20
2017-12-12T07:59:49.435Z,67.70
2017-12-12T08:02:17.759Z,67.00
2017-12-12T08:04:46.074Z,68.30
2017-12-12T08:07:14.391Z,66.40
2017-12-12T08:09:42.700Z,65.90
2017-12-12T08:12:11.953Z,66.20
2017-12-12T08:14:47.523Z,65.80
2017-12-12T08:17:15.827Z,64.20
2017-12-12T08:19:47.514Z,63.90
2017-12-12T08:22:20.764Z,63.50
2017-12-12T08:24:49.066Z,63.50
2017-12-12T08:27:18.335Z,62.40
2017-12-12T08:29:46.633Z,61.70
2017-12-12T08:32:14.971Z,61.40
2017-12-12T08:34:43.260Z,62.00
2017-12-12T08:37:11.533Z,61.10
2017-12-12T08:39:39.848Z,60.50
2017-12-12T08:42:08.188Z,59.20
2017-12-12T08:44:36.507Z,58.60
2017-12-12T08:47:04.796Z,59.70
2017-12-12T08:49:33.856Z,58.50
2017-12-12T08:52:02.933Z,58.60
2017-12-12T08:54:31.355Z,58.50
2017-12-12T08:56:59.930Z,58.60
2017-12-12T08:59:28.268Z,57.20
2017-12-12T09:01:56.588Z,58.20
2017-12-12T09:04:25.692Z,56.10
2017-12-12T09:06:53.983Z,56.10
2017-12-12T09:09:22.272Z,55.80
2017-12-12T09:11:50.593Z,55.00
2017-12-12T09:14:18.932Z,54.80
2017-12-12T09:16:47.995Z,55.60
2017-12-12T09:19:16.267Z,55.60
2017-12-12T09:21:45.330Z,54.00
2017-12-12T09:24:13.657Z,53.90
2017-12-12T09:26:41.959Z,54.10
2017-12-12T09:29:10.367Z,54.20
2017-12-12T09:31:38.643Z,54.40
2017-12-12T09:34:09.797Z,52.90
2017-12-12T09:36:38.172Z,54.00
2017-12-12T09:39:06.459Z,53.90
2017-12-12T09:41:35.528Z,54.10
2017-12-12T09:44:03.814Z,53.90
2017-12-12T09:46:40.010Z,54.80
2017-12-12T09:49:08.296Z,55.00
2017-12-12T09:51:37.407Z,55.70
2017-12-12T09:54:05.687Z,55.60
2017-12-12T09:56:34.016Z,55.50
2017-12-12T09:59:02.386Z,56.80
2017-12-12T10:01:30.707Z,56.30
2017-12-12T10:03:59.051Z,53.90
2017-12-12T10:06:28.472Z,52.00
2017-12-12T10:08:56.783Z,51.90
2017-12-12T10:11:25.087Z,52.00
2017-12-12T10:13:53.428Z,53.80
2017-12-12T10:16:22.867Z,50.30
2017-12-12T10:18:51.226Z,50.20
2017-12-12T10:21:19.506Z,51.80
2017-12-12T10:23:47.853Z,49.50
2017-12-12T10:26:16.146Z,49.10
2017-12-12T10:28:44.488Z,49.20
2017-12-12T10:31:12.794Z,48.50
2017-12-12T10:33:41.126Z,47.40
2017-12-12T10:36:09.415Z,46.50
2017-12-12T10:38:37.734Z,47.10
2017-12-12T10:41:06.046Z,47.00
2017-12-12T10:43:34.351Z,48.20
2017-12-12T10:46:02.674Z,47.10
2017-12-12T10:48:30.975Z,48.20
2017-12-12T10:51:00.100Z,48.00
2017-12-12T10:53:28.430Z,47.90
2017-12-12T10:55:58.275Z,47.50
2017-12-12T10:58:48.668Z,47.50
2017-12-12T11:01:17.887Z,46.70
2017-12-12T11:03:46.163Z,46.90
2017-12-12T11:06:14.534Z,47.60
2017-12-12T11:08:43.578Z,47.00
2017-12-12T11:11:11.870Z,47.00
2017-12-12T11:13:40.974Z,48.80
2017-12-12T11:16:09.285Z,48.80
2017-12-12T11:18:37.695Z,50.40
2017-12-12T11:21:05.971Z,51.40
2017-12-12T11:23:34.352Z,51.70
2017-12-12T11:26:03.588Z,51.00
2017-12-12T11:28:31.929Z,51.30
2017-12-12T11:31:01.002Z,52.50
2017-12-12T11:33:30.181Z,52.70
2017-12-12T11:36:02.047Z,53.00
2017-12-12T11:38:30.375Z,52.10
2017-12-12T11:41:00.440Z,52.40
2017-12-12T11:43:29.655Z,52.40
2017-12-12T11:45:58.779Z,51.20
2017-12-12T11:48:27.295Z,51.30
2017-12-12T11:50:55.609Z,51.80
2017-12-12T11:53:23.907Z,51.80
2017-12-12T11:55:52.204Z,51.70
2017-12-12T11:58:20.528Z,50.60
2017-12-12T12:00:48.809Z,51.80
2017-12-12T12:03:17.921Z,54.40
2017-12-12T12:06:03.501Z,54.40
2017-12-12T12:08:31.786Z,55.30
2017-12-12T12:11:00.113Z,56.30
2017-12-12T12:13:28.406Z,56.00
2017-12-12T12:15:56.687Z,56.00
2017-12-12T12:18:24.984Z,57.60
2017-12-12T12:20:53.280Z,58.20
2017-12-12T12:23:27.315Z,58.20
2017-12-12T12:25:56.370Z,59.00
2017-12-12T12:28:24.651Z,59.00
2017-12-12T12:33:26.363Z,59.40
2017-12-12T12:35:56.609Z,59.80
2017-12-12T12:38:24.976Z,60.80
2017-12-12T12:40:53.344Z,60.10
2017-12-12T12:43:21.662Z,59.70
2017-12-12T12:45:49.935Z,61.30
2017-12-12T12:48:18.255Z,60.70
2017-12-12T12:50:59.925Z,61.50
2017-12-12T12:53:28.465Z,62.10
2017-12-12T12:56:01.486Z,63.60
2017-12-12T12:58:30.841Z,63.50
2017-12-12T13:01:00.144Z,63.10
2017-12-12T13:03:28.448Z,64.40
2017-12-12T13:05:56.788Z,64.50
2017-12-12T13:08:25.138Z,64.50
2017-12-12T13:10:53.434Z,64.40
2017-12-12T13:13:22.511Z,64.50
2017-12-12T13:15:50.831Z,64.50
2017-12-12T13:18:19.142Z,64.40
2017-12-12T13:20:48.222Z,62.90
2017-12-12T13:23:17.286Z,63.10
2017-12-12T13:25:45.611Z,63.00
2017-12-12T13:28:13.898Z,62.90
2017-12-12T13:30:42.949Z,64.30
2017-12-12T13:33:14.458Z,64.30
2017-12-12T13:35:42.736Z,62.90
2017-12-12T13:38:11.063Z,63.30
2017-12-12T13:40:39.342Z,62.50
2017-12-12T13:43:07.658Z,62.50
2017-12-12T13:45:36.928Z,62.90
2017-12-12T13:48:05.244Z,62.00
2017-12-12T13:50:38.747Z,62.50
2017-12-12T13:53:07.057Z,60.30
2017-12-12T13:55:36.144Z,63.20
2017-12-12T13:58:04.463Z,63.20
2017-12-12T14:00:32.771Z,64.60
2017-12-12T14:03:01.083Z,65.10
2017-12-12T14:05:30.187Z,65.40
2017-12-12T14:07:58.479Z,65.30
2017-12-12T14:10:26.774Z,65.20
2017-12-12T14:12:55.082Z,63.50
2017-12-12T14:15:24.323Z,63.50
2017-12-12T14:17:52.636Z,63.50
2017-12-12T14:20:27.414Z,64.60
2017-12-12T14:22:56.479Z,65.40
2017-12-12T14:25:24.772Z,65.20
2017-12-12T14:27:53.834Z,65.10
2017-12-12T14:30:22.866Z,65.10
2017-12-12T14:32:58.615Z,65.10
2017-12-12T14:35:28.520Z,65.20
2017-12-12T14:37:56.791Z,64.40
2017-12-12T14:40:25.102Z,65.00
2017-12-12T14:42:53.396Z,64.70
2017-12-12T14:45:21.679Z,65.60
2017-12-12T14:47:49.985Z,65.50
2017-12-12T14:50:18.265Z,65.40
2017-12-12T14:52:46.616Z,65.40
2017-12-12T14:55:14.897Z,65.10
2017-12-12T14:57:44.123Z,64.80
2017-12-12T15:00:12.452Z,63.40
2017-12-12T15:02:40.734Z,62.40
2017-12-12T15:05:09.100Z,60.60
2017-12-12T15:07:37.407Z,60.40
2017-12-12T15:10:05.702Z,59.80
2017-12-12T15:12:34.079Z,59.40
2017-12-12T15:15:02.387Z,59.70
2017-12-12T15:17:30.717Z,59.70
2017-12-12T15:20:00.022Z,59.60
2017-12-12T15:22:28.331Z,59.60
2017-12-12T15:24:56.648Z,59.70
2017-12-12T15:27:24.931Z,59.30
2017-12-12T15:29:53.235Z,59.60
2017-12-12T15:32:22.277Z,59.80
2017-12-12T15:34:50.587Z,59.80
2017-12-12T15:37:19.672Z,60.10
2017-12-12T15:39:48.747Z,60.30
2017-12-12T15:42:17.842Z,60.10
2017-12-12T15:44:46.173Z,60.00
2017-12-12T15:47:14.477Z,60.60
2017-12-12T15:49:42.746Z,61.00
2017-12-12T15:52:11.060Z,61.30
2017-12-12T15:54:39.340Z,61.90
2017-12-12T15:57:08.379Z,62.80
2017-12-12T15:59:36.670Z,62.80
2017-12-12T16:02:05.751Z,63.30
2017-12-12T16:04:34.078Z,63.20
2017-12-12T16:07:02.375Z,63.20
2017-12-12T16:09:31.502Z,63.00
2017-12-12T16:12:00.682Z,63.60
2017-12-12T16:14:29.774Z,63.50
2017-12-12T16:16:58.460Z,63.40
2017-12-12T16:19:27.520Z,64.20
2017-12-12T16:21:55.807Z,64.20
2017-12-12T16:24:24.858Z,64.10
2017-12-12T16:26:53.151Z,64.00
2017-12-12T16:29:22.206Z,64.30
2017-12-12T16:31:51.252Z,64.50
2017-12-12T16:34:19.548Z,64.40
2017-12-12T16:36:48.600Z,65.30
2017-12-12T16:39:16.919Z,65.30
2017-12-12T16:41:45.195Z,65.80
2017-12-12T16:44:13.478Z,65.90
2017-12-12T16:46:41.796Z,65.50
2017-12-12T16:49:10.090Z,65.80
2017-12-12T16:51:38.372Z,65.40
2017-12-12T16:54:06.670Z,65.80
2017-12-12T16:56:35.962Z,66.00
2017-12-12T16:59:04.290Z,66.20
2017-12-12T17:01:32.662Z,66.80
2017-12-12T17:04:01.023Z,66.90
2017-12-12T17:06:30.246Z,67.40
2017-12-12T17:08:58.647Z,67.80
2017-12-12T17:11:26.934Z,68.10
2017-12-12T17:13:56.084Z,67.20
2017-12-12T17:16:24.362Z,67.50
2017-12-12T17:18:53.453Z,67.90
2017-12-12T17:21:22.535Z,67.60
2017-12-12T17:23:50.844Z,67.60
2017-12-12T17:26:19.139Z,67.60
2017-12-12T17:28:50.560Z,67.50
2017-12-12T17:31:18.862Z,68.20
2017-12-12T17:33:47.178Z,67.80
2017-12-12T17:36:15.580Z,68.00
2017-12-12T17:38:44.637Z,67.30
2017-12-12T17:41:12.938Z,67.20
2017-12-12T17:43:41.251Z,67.90
2017-12-12T17:46:09.552Z,67.60
2017-12-12T17:48:37.877Z,68.00
2017-12-12T17:51:06.248Z,67.90
2017-12-12T17:53:34.622Z,67.10
2017-12-12T17:56:02.921Z,66.10
2017-12-12T17:58:31.203Z,66.80
2017-12-12T18:01:00.284Z,67.10
2017-12-12T18:03:28.588Z,67.10
2017-12-12T18:05:56.904Z,66.60
2017-12-12T18:08:25.228Z,65.90
2017-12-12T18:10:54.520Z,65.30
2017-12-12T18:13:22.876Z,65.30
2017-12-12T18:15:51.200Z,64.90
2017-12-12T18:18:19.524Z,65.40
2017-12-12T18:20:47.838Z,65.20
2017-12-12T18:23:16.132Z,65.70
2017-12-12T18:25:44.420Z,64.40
2017-12-12T18:28:12.734Z,64.80
2017-12-12T18:30:41.044Z,64.80
2017-12-12T18:33:09.361Z,64.50
2017-12-12T18:35:37.647Z,64.80
2017-12-12T18:38:05.968Z,65.00
2017-12-12T18:40:34.262Z,65.20
2017-12-12T18:43:02.612Z,65.20
2017-12-12T18:45:31.136Z,65.00
2017-12-12T18:47:59.470Z,65.10
2017-12-12T18:50:27.773Z,64.60
2017-12-12T18:52:56.082Z,65.30
2017-12-12T18:55:24.401Z,65.20
2017-12-12T18:57:52.710Z,64.60
2017-12-12T19:00:21.026Z,64.40
2017-12-12T19:02:49.374Z,65.00
2017-12-12T19:05:17.676Z,64.70
2017-12-12T19:07:45.964Z,65.10
2017-12-12T19:10:14.318Z,64.90
2017-12-12T19:12:42.606Z,64.80
2017-12-12T19:15:11.013Z,64.90
2017-12-12T19:17:39.318Z,65.10
2017-12-12T19:20:07.625Z,64.60
2017-12-12T19:22:35.942Z,64.60
2017-12-12T19:25:04.326Z,65.30
2017-12-12T19:27:32.620Z,65.30
2017-12-12T19:30:00.941Z,65.70
2017-12-12T19:32:29.304Z,65.60
2017-12-12T19:34:57.616Z,66.60
2017-12-12T19:37:25.933Z,65.90
2017-12-12T19:39:54.224Z,66.80
2017-12-12T19:42:22.522Z,66.50
2017-12-12T19:44:50.847Z,67.00
2017-12-12T19:47:19.157Z,66.90
2017-12-12T19:49:47.444Z,67.40
2017-12-12T19:52:15.776Z,67.80
2017-12-12T19:54:44.067Z,68.10
2017-12-12T19:57:12.367Z,68.90
2017-12-12T19:59:40.656Z,67.70
2017-12-12T20:02:08.985Z,67.90
2017-12-12T20:04:37.344Z,68.50
2017-12-12T20:07:05.662Z,68.20
2017-12-12T20:09:33.965Z,68.50
2017-12-12T20:12:02.329Z,68.70
2017-12-12T20:14:30.623Z,69.00
2017-12-12T20:16:58.932Z,69.00
2017-12-12T20:19:27.267Z,69.10
2017-12-12T20:21:55.556Z,69.20
2017-12-12T20:24:23.845Z,69.50
2017-12-12T20:26:52.158Z,69.90
2017-12-12T20:29:20.479Z,69.50
2017-12-12T20:31:48.796Z,70.10
2017-12-12T20:34:17.130Z,69.00
2017-12-12T20:36:45.431Z,69.70
2017-12-12T20:39:13.721Z,68.90
2017-12-12T20:41:42.057Z,69.30
2017-12-12T20:44:11.112Z,69.10
2017-12-12T20:46:39.453Z,69.10
2017-12-12T20:49:07.790Z,68.70
2017-12-12T20:51:36.883Z,69.40
2017-12-12T20:54:05.181Z,69.40
2017-12-12T20:56:33.555Z,69.30
2017-12-12T20:59:01.850Z,70.00
2017-12-12T21:01:30.289Z,70.00
2017-12-12T21:03:58.617Z,69.90
2017-12-12T21:06:26.936Z,70.20
2017-12-12T21:08:55.473Z,70.60
2017-12-12T21:11:24.536Z,71.10
2017-12-12T21:13:52.829Z,71.10
2017-12-12T21:16:21.172Z,71.40
2017-12-12T21:18:50.357Z,72.10
2017-12-12T21:21:19.571Z,72.20
2017-12-12T21:23:47.882Z,72.80
2017-12-12T21:26:16.228Z,72.80
2017-12-12T21:28:44.537Z,72.80
2017-12-12T21:31:12.862Z,73.10
2017-12-12T21:33:41.289Z,73.80
2017-12-12T21:36:09.657Z,73.70
2017-12-12T21:38:38.750Z,76.70
2017-12-12T21:41:07.078Z,76.70
2017-12-12T21:43:36.442Z,75.60
2017-12-12T21:46:04.747Z,75.60
2017-12-12T21:48:33.121Z,75.50
2017-12-12T21:51:02.182Z,75.80
2017-12-12T21:53:30.515Z,75.80
2017-12-12T21:55:58.852Z,76.50
2017-12-12T21:58:27.144Z,76.60
2017-12-12T22:00:56.225Z,77.10
2017-12-12T22:03:24.585Z,77.10
2017-12-12T22:05:52.876Z,77.60
2017-12-12T22:08:21.948Z,78.30
2017-12-12T22:10:50.286Z,78.40
2017-12-12T22:13:19.365Z,79.20
2017-12-12T22:15:47.753Z,79.30
2017-12-12T22:18:16.105Z,79.10
2017-12-12T22:20:45.216Z,80.00
2017-12-12T22:23:13.523Z,80.00
2017-12-12T22:25:41.861Z,80.00
2017-12-12T22:28:10.940Z,81.20
2017-12-12T22:30:39.270Z,81.20
2017-12-12T22:33:07.605Z,81.10
2017-12-12T22:35:35.920Z,81.10
2017-12-12T22:38:04.250Z,81.40
2017-12-12T22:40:32.611Z,81.80
2017-12-12T22:43:00.929Z,82.20
2017-12-12T22:45:29.221Z,82.40
2017-12-12T22:47:57.700Z,82.30
2017-12-12T22:50:26.858Z,83.00
2017-12-12T22:52:55.212Z,83.00
2017-12-12T22:55:23.616Z,83.10
2017-12-12T22:57:51.908Z,83.50
2017-12-12T23:00:21.929Z,83.50
2017-12-12T23:02:50.245Z,84.90
2017-12-12T23:05:18.569Z,84.00
2017-12-12T23:07:46.886Z,84.40
2017-12-12T23:10:16.076Z,85.70
2017-12-12T23:12:44.366Z,85.50
2017-12-12T23:15:12.657Z,85.70
2017-12-12T23:17:40.980Z,85.70
2017-12-12T23:20:09.265Z,86.20
2017-12-12T23:22:37.603Z,86.90
2017-12-12T23:25:05.930Z,87.50
2017-12-12T23:27:34.288Z,87.80
2017-12-12T23:30:02.604Z,87.90
2017-12-12T23:32:30.969Z,88.00
2017-12-12T23:35:00.140Z,88.00
2017-12-12T23:37:28.433Z,88.10
2017-12-12T23:39:56.757Z,88.20
2017-12-12T23:42:25.097Z,87.60
2017-12-12T23:44:53.413Z,87.40
2017-12-12T23:47:21.765Z,87.60
2017-12-12T23:49:50.060Z,88.00
2017-12-12T23:52:18.376Z,87.80
2017-12-12T23:54:46.669Z,87.90
2017-12-12T23:57:15.006Z,87.60
2017-12-12T23:59:44.063Z,87.60
